22 Sep 2018 18:42 CDT 2018265+18:42 CDT

Overview Datums Bench Marks Data Query Site Visit Daily QC Messages Attributes

130: GBRA Station #2

28° 24' 26" N   96° 42' 43" W
GBRA2
Guadalupe Blanco River Authority (GBRA) GBRA

Station Information

GBRA Station #2
GBRA Station #2
more pictures
 
Station Name:GBRA Station #2
DNR ID:130
Location:28° 24' 26" N, 96° 42' 43" W

Water Level Forecasts

Latest Observations

Series Metric English Marine Observed at
Water Temperature 29.3 °C 84.7 °F 84.7 °F Sep 22 13:30 CDT
00h07m ago
Salinity 1.400 psu 1.400 psu 1.400 psu Sep 22 13:30 CDT
00h07m ago

Maps

GBRA Station #2
All Stations in Area
Entire Network
 

Recent Observations

Date/Time Water
Temp (°F)
Sal (psu)
Sep 22 13:00 CDT 84.7 1.400
Sep 22 12:00 CDT 84.4 1.700
Sep 22 11:00 CDT 84.0 1.700
Sep 22 10:00 CDT 83.5 1.700
Sep 22 09:00 CDT 83.1 1.600
Sep 22 08:00 CDT 83.3 1.600
Sep 22 07:00 CDT 83.8 1.600
Sep 22 06:00 CDT 84.2 1.700
Sep 22 05:00 CDT 84.4 1.600
Sep 22 04:00 CDT 84.6 1.500
Sep 22 03:00 CDT 84.7 1.800
Sep 22 02:00 CDT 84.9 1.900
Sep 22 01:00 CDT 85.1 1.800
Sep 22 00:00 CDT 85.3 1.800
Sep 21 23:00 CDT 85.6 1.800
Sep 21 22:00 CDT 85.8 1.800
Sep 21 21:00 CDT 86.0 1.800
Sep 21 20:00 CDT 86.4 1.700
Sep 21 19:00 CDT 86.5 1.700
Sep 21 18:00 CDT 86.7 1.600
Sep 21 17:00 CDT 86.7 1.600
Sep 21 16:00 CDT 86.5 1.600
Sep 21 15:00 CDT 86.0 1.600
Sep 21 14:00 CDT 85.1 1.600
Sep 21 13:00 CDT 84.4 1.600

Historical Data Availability